KWRI

Mc Guire Field (Joint Base Mc Guire Dix Lakehurst) Airport

Wrightstown, New Jersey, USA
TAF KWRI 171800Z 1718/1824 29015G25KT 9999 SKC QNH2987INS TEMPO 1719/1722 30025G35KT 510003 BECMG 1805/1806 30012KT 9999 SCT040 QNH2995INS BECMG 1814/1815 30012G18KT 9999 SCT040 QNH3030INS BECMG 1821/1822 28009KT 9999 SKC QNH3034INS TX18/1719Z TN02/1810Z
Issued Valid From Valid To
Oct-17 @ 18:00 UTC
(3 hours ago)
Oct-17 @ 18:00 UTC
(3 hours ago)
Oct-19 @ 00:00 UTC
(-1 days ago)
Oct-17 @ 18:00 to Oct-18 @ 05:00
TAF KWRI 171800Z 1718/1824 29015G25KT 9999 SKC QNH2987INS
Wind Visibility Clouds Readings
290° at 15 knots
 Gusting to 25 knots
Greater than 6 miles
  • Clear skies
Altimeter 29.88" Hg
Pressure 1012 hPa
Temporary Oct-17 @ 19:00 to Oct-17 @ 22:00
TEMPO 1719/1722 30025G35KT 510003
Wind Turbulence
300° at 25 knots
 Gusting to 35 knots
Light turbulence expected at the surface extending to 3,000' AGL
Becoming Oct-18 @ 05:00 to Oct-18 @ 14:00
BECMG 1805/1806 30012KT 9999 SCT040 QNH2995INS
Wind Visibility Clouds Readings
300° at 12 knots Greater than 6 miles
  • Scattered at 4,000' AGL
Altimeter 29.94" Hg
Pressure 1014 hPa
Becoming Oct-18 @ 14:00 to Oct-18 @ 21:00
BECMG 1814/1815 30012G18KT 9999 SCT040 QNH3030INS
Wind Visibility Clouds Readings
300° at 12 knots
 Gusting to 18 knots
Greater than 6 miles
  • Scattered at 4,000' AGL
Altimeter 30.3" Hg
Pressure 1026 hPa
Becoming Oct-18 @ 21:00 to Oct-19 @ 00:00
BECMG 1821/1822 28009KT 9999 SKC QNH3034INS TX18/1719Z TN02/1810Z
Wind Visibility Clouds Readings
280° at 9 knots Greater than 6 miles
  • Clear skies
Altimeter 30.35" Hg
Pressure 1028 hPa
TAF KWRI 171800Z 1718/1824 29015G25KT 9999 SKC QNH2987INS TEMPO 1719/1722 30025G35KT 510003 BECMG 1805/1806 30012KT 9999 SCT040 QNH2995INS BECMG 1814/1815 30012G18KT 9999 SCT040 QNH3030INS BECMG 1821/1822 28009KT 9999 SKC QNH3034INS TX18/1719Z TN02/1810Z
Issued Oct-17 @ 18:00 UTC
(3 hours ago)
Valid From Oct-17 @ 18:00 UTC
(3 hours ago)
Valid To Oct-19 @ 00:00 UTC
(-1 days ago)
Oct-17 @ 18:00 - Oct-18 @ 05:00
Wind Visibility
290° at 15 knots
 Gusting to 25 knots
Greater than 6 miles
Clouds
  • Clear skies
Temporary Oct-17 @ 19:00 - Oct-17 @ 22:00
Wind
300° at 25 knots
 Gusting to 35 knots
Becoming Oct-18 @ 05:00 - Oct-18 @ 14:00
Wind Visibility
300° at 12 knots Greater than 6 miles
Clouds
  • Scattered at 4,000' AGL
Becoming Oct-18 @ 14:00 - Oct-18 @ 21:00
Wind Visibility
300° at 12 knots
 Gusting to 18 knots
Greater than 6 miles
Clouds
  • Scattered at 4,000' AGL
Becoming Oct-18 @ 21:00 - Oct-19 @ 00:00
Wind Visibility
280° at 9 knots Greater than 6 miles
Clouds
  • Clear skies